Time;durP1;ratioP1;P1;durP2;ratioP2;P2;SDS_P1;SDS_P2;PMS_P1;PMS_P2;Temp;Humidity;BMP_temperature;BMP_pressure;BME280_temperature;BME280_humidity;BME280_pressure;Samples;Min_cycle;Max_cycle;Signal;HPM_P1;HPM_P2
2024/01/20 00:01:52;;;;;;;5.40;1.95;;;2.20;99.90;;;;;;5073806;28;20101;-47
2024/01/20 00:04:18;;;;;;;12.80;2.23;;;2.20;99.90;;;;;;5073984;28;20047;-46
2024/01/20 00:06:44;;;;;;;10.67;1.73;;;2.20;99.90;;;;;;5074066;28;20048;-46
2024/01/20 00:09:10;;;;;;;4.97;1.75;;;2.10;99.90;;;;;;5073681;28;20468;-47
2024/01/20 00:11:37;;;;;;;7.53;2.05;;;2.10;99.90;;;;;;5073845;28;20055;-46
2024/01/20 00:14:03;;;;;;;5.13;2.00;;;2.10;99.90;;;;;;5073779;28;20053;-46
2024/01/20 00:16:29;;;;;;;5.47;2.03;;;2.10;99.90;;;;;;5073506;28;20045;-46
2024/01/20 00:18:54;;;;;;;5.30;2.13;;;2.10;99.90;;;;;;5073625;28;20051;-46
2024/01/20 00:21:20;;;;;;;7.70;2.53;;;2.20;99.90;;;;;;5073719;28;20049;-46
2024/01/20 00:23:46;;;;;;;5.53;2.22;;;2.10;99.90;;;;;;5073426;28;20109;-46
2024/01/20 00:26:12;;;;;;;7.27;2.67;;;2.00;99.90;;;;;;5073723;28;20064;-46
2024/01/20 00:28:37;;;;;;;5.73;2.73;;;2.00;99.90;;;;;;5073615;28;20148;-46
2024/01/20 00:31:03;;;;;;;11.90;2.80;;;2.00;99.90;;;;;;5072371;28;20037;-46
2024/01/20 00:33:29;;;;;;;7.88;2.45;;;2.00;99.90;;;;;;5073909;28;20041;-46
2024/01/20 00:35:55;;;;;;;7.28;2.90;;;2.00;99.90;;;;;;5073610;28;20098;-46
2024/01/20 00:38:21;;;;;;;6.67;2.60;;;1.90;99.90;;;;;;5073439;28;20049;-46
2024/01/20 00:40:47;;;;;;;7.83;2.90;;;2.00;99.90;;;;;;5073510;28;20076;-46
2024/01/20 00:43:13;;;;;;;6.88;2.80;;;1.90;99.90;;;;;;5073388;28;20520;-46
2024/01/20 00:45:38;;;;;;;7.37;2.50;;;1.90;99.90;;;;;;5077341;28;20499;-46
2024/01/20 00:48:04;;;;;;;7.30;2.70;;;1.90;99.90;;;;;;5077666;28;20048;-47
2024/01/20 00:50:30;;;;;;;6.40;3.00;;;1.90;99.90;;;;;;5077477;28;20048;-47
2024/01/20 00:52:56;;;;;;;9.20;3.33;;;1.90;99.90;;;;;;5077625;28;20040;-46
2024/01/20 00:55:21;;;;;;;7.75;3.55;;;1.90;99.90;;;;;;5077402;28;20044;-47
2024/01/20 00:57:47;;;;;;;7.13;3.88;;;1.90;99.90;;;;;;5077336;28;20070;-46
2024/01/20 01:00:13;;;;;;;5.93;3.25;;;1.80;99.90;;;;;;5077185;28;20395;-47
2024/01/20 01:02:40;;;;;;;8.30;3.47;;;1.80;99.90;;;;;;5077164;28;20466;-47
2024/01/20 01:05:06;;;;;;;7.63;3.50;;;1.80;99.90;;;;;;5077451;28;20052;-46
2024/01/20 01:07:32;;;;;;;7.07;3.65;;;1.80;99.90;;;;;;5077578;28;20091;-47
2024/01/20 01:09:58;;;;;;;10.40;3.17;;;1.80;99.90;;;;;;5077259;28;20049;-46
2024/01/20 01:12:24;;;;;;;7.43;3.40;;;1.90;99.90;;;;;;5076888;28;20040;-46
2024/01/20 01:14:50;;;;;;;7.83;3.80;;;1.80;99.90;;;;;;5076913;28;20174;-46
2024/01/20 01:17:19;;;;;;;7.88;3.42;;;1.90;99.90;;;;;;5077384;28;20769;-47
2024/01/20 01:19:45;;;;;;;6.38;3.63;;;1.90;99.90;;;;;;5076883;28;20040;-46
2024/01/20 01:22:11;;;;;;;8.77;3.67;;;1.80;99.90;;;;;;5076393;28;20407;-46
2024/01/20 01:24:37;;;;;;;7.07;3.60;;;1.80;99.90;;;;;;5076896;28;20282;-46
2024/01/20 01:27:06;;;;;;;6.65;3.55;;;1.80;99.90;;;;;;5075705;28;20492;-50
2024/01/20 01:29:33;;;;;;;7.57;3.97;;;1.80;99.90;;;;;;5076710;28;20052;-51
2024/01/20 01:31:59;;;;;;;7.88;3.47;;;1.80;99.90;;;;;;5075433;28;20403;-51
2024/01/20 01:34:24;;;;;;;8.90;3.40;;;1.80;99.90;;;;;;5076640;28;20044;-47
2024/01/20 01:36:50;;;;;;;9.55;3.42;;;1.90;99.90;;;;;;5076678;28;20476;-47
2024/01/20 01:39:17;;;;;;;7.27;3.93;;;1.90;99.90;;;;;;5076509;28;20048;-49
2024/01/20 01:41:43;;;;;;;8.88;3.95;;;1.90;99.90;;;;;;5076464;28;20048;-50
2024/01/20 01:44:09;;;;;;;9.27;3.83;;;1.90;99.90;;;;;;5076453;28;20084;-51
2024/01/20 01:46:35;;;;;;;11.60;3.78;;;1.90;99.90;;;;;;5076513;28;20817;-50
2024/01/20 01:49:01;;;;;;;8.23;3.70;;;1.90;99.90;;;;;;5076429;28;20136;-47
2024/01/20 01:51:27;;;;;;;7.30;4.10;;;1.90;99.90;;;;;;5076289;28;20392;-47
2024/01/20 01:53:55;;;;;;;12.43;3.97;;;1.90;99.90;;;;;;5076209;28;20444;-47
2024/01/20 01:56:22;;;;;;;10.70;3.95;;;1.90;99.90;;;;;;5074749;28;20095;-51
2024/01/20 01:58:47;;;;;;;8.57;3.97;;;2.00;99.90;;;;;;5076203;28;20052;-49
2024/01/20 02:01:13;;;;;;;9.50;3.70;;;2.00;99.90;;;;;;5076198;28;20048;-50
2024/01/20 02:03:40;;;;;;;8.73;4.40;;;2.00;99.90;;;;;;5076125;28;20044;-48
2024/01/20 02:06:09;;;;;;;8.65;4.55;;;2.00;99.90;;;;;;5076127;28;20053;-50
2024/01/20 02:08:35;;;;;;;9.57;4.05;;;2.00;99.90;;;;;;5075921;28;20105;-51
2024/01/20 02:11:02;;;;;;;9.13;3.97;;;2.00;99.90;;;;;;5075874;28;20052;-48
2024/01/20 02:13:28;;;;;;;7.80;3.90;;;2.00;99.90;;;;;;5076316;28;20438;-46
2024/01/20 02:15:54;;;;;;;7.78;3.92;;;2.10;99.90;;;;;;5076067;28;20097;-46
2024/01/20 02:18:22;;;;;;;8.57;3.75;;;2.10;99.90;;;;;;5074857;28;20101;-47
2024/01/20 02:20:48;;;;;;;7.07;3.78;;;2.10;99.90;;;;;;5075788;28;20068;-46
2024/01/20 02:23:14;;;;;;;9.30;3.95;;;2.10;99.90;;;;;;5075486;28;20503;-46
2024/01/20 02:25:39;;;;;;;9.02;4.47;;;2.10;99.90;;;;;;5075580;28;20036;-47
2024/01/20 02:28:05;;;;;;;7.38;3.58;;;2.10;99.90;;;;;;5075784;28;20101;-46
2024/01/20 02:30:31;;;;;;;8.25;4.10;;;2.10;99.90;;;;;;5075738;28;20051;-47
2024/01/20 02:32:57;;;;;;;9.63;4.22;;;2.10;99.90;;;;;;5075549;28;20040;-48
2024/01/20 02:35:23;;;;;;;6.78;3.75;;;2.10;99.90;;;;;;5075638;28;20079;-46
2024/01/20 02:37:48;;;;;;;10.85;3.78;;;2.10;99.90;;;;;;5074673;28;20055;-46
2024/01/20 02:40:14;;;;;;;11.57;5.07;;;2.10;99.90;;;;;;5075353;28;20496;-47
2024/01/20 02:42:40;;;;;;;11.33;4.57;;;2.10;99.90;;;;;;5075513;28;20044;-46
2024/01/20 02:45:06;;;;;;;8.60;3.80;;;2.00;99.90;;;;;;5075401;28;20498;-46
2024/01/20 02:47:31;;;;;;;11.57;4.57;;;2.00;99.90;;;;;;5075385;28;20391;-46
2024/01/20 02:49:57;;;;;;;9.88;4.55;;;2.10;99.90;;;;;;5075349;28;20370;-46
2024/01/20 02:52:23;;;;;;;10.70;4.20;;;2.00;99.90;;;;;;5075085;28;20117;-47
2024/01/20 02:54:48;;;;;;;9.13;4.65;;;2.00;99.90;;;;;;5075204;28;20442;-47
2024/01/20 02:57:14;;;;;;;7.70;4.60;;;2.00;99.90;;;;;;5075200;28;20094;-47
2024/01/20 02:59:40;;;;;;;13.35;5.03;;;2.00;99.90;;;;;;5075070;28;20102;-48
2024/01/20 03:02:05;;;;;;;8.93;4.50;;;2.00;99.90;;;;;;5074930;28;20048;-47
2024/01/20 03:04:31;;;;;;;9.80;4.65;;;2.00;99.90;;;;;;5074929;28;20044;-49
2024/01/20 03:06:57;;;;;;;9.67;4.80;;;2.00;99.90;;;;;;5074768;28;20048;-48
2024/01/20 03:09:22;;;;;;;10.63;4.57;;;2.00;99.90;;;;;;5074760;28;20052;-49
2024/01/20 03:11:48;;;;;;;11.82;4.78;;;2.00;99.90;;;;;;5074638;28;20049;-47
2024/01/20 03:14:14;;;;;;;8.27;4.30;;;1.90;99.90;;;;;;5074932;28;20174;-48
2024/01/20 03:16:39;;;;;;;10.43;4.88;;;1.90;99.90;;;;;;5074815;28;20067;-50
2024/01/20 03:19:06;;;;;;;10.13;5.32;;;1.90;99.90;;;;;;5074569;28;20123;-48
2024/01/20 03:21:33;;;;;;;9.25;4.97;;;1.90;99.90;;;;;;5074428;28;20037;-48
2024/01/20 03:23:58;;;;;;;12.07;6.10;;;1.90;99.90;;;;;;5074702;28;20056;-48
2024/01/20 03:26:24;;;;;;;11.30;6.00;;;1.80;99.90;;;;;;5074322;28;20105;-46
2024/01/20 03:28:50;;;;;;;9.85;6.10;;;1.90;99.90;;;;;;5073332;28;20049;-48
2024/01/20 03:31:15;;;;;;;13.13;6.90;;;1.80;99.90;;;;;;5073279;28;20041;-50
2024/01/20 03:33:41;;;;;;;9.95;6.10;;;1.80;99.90;;;;;;5074612;28;20045;-46
2024/01/20 03:36:07;;;;;;;10.57;5.80;;;1.80;99.90;;;;;;5074438;28;20407;-46
2024/01/20 03:38:32;;;;;;;11.95;6.93;;;1.80;99.90;;;;;;5074206;28;20066;-47
2024/01/20 03:40:58;;;;;;;13.80;7.22;;;1.80;99.90;;;;;;5073992;28;20102;-46
2024/01/20 03:43:24;;;;;;;11.85;7.18;;;1.80;99.90;;;;;;5074276;28;20043;-46
2024/01/20 03:45:49;;;;;;;14.57;7.60;;;1.80;99.90;;;;;;5074109;28;20044;-47
2024/01/20 03:48:15;;;;;;;12.73;7.28;;;1.80;99.90;;;;;;5074144;28;20048;-46
2024/01/20 03:50:41;;;;;;;13.65;7.38;;;1.80;99.90;;;;;;5074356;28;20139;-47
2024/01/20 03:53:06;;;;;;;13.68;8.25;;;1.80;99.90;;;;;;5074088;28;20044;-47
2024/01/20 03:55:32;;;;;;;13.98;7.47;;;1.70;99.90;;;;;;5073785;28;20102;-47
2024/01/20 03:57:58;;;;;;;11.23;7.40;;;1.70;99.90;;;;;;5074066;28;20087;-46
2024/01/20 04:00:24;;;;;;;14.93;8.45;;;1.70;99.90;;;;;;5073892;28;20037;-47
2024/01/20 04:02:49;;;;;;;15.27;8.13;;;1.80;99.90;;;;;;5073826;28;20040;-47
2024/01/20 04:05:15;;;;;;;14.98;8.38;;;1.70;99.90;;;;;;5073831;28;20051;-46
2024/01/20 04:07:42;;;;;;;15.90;8.18;;;1.80;99.90;;;;;;5072674;28;20044;-46
2024/01/20 04:10:08;;;;;;;14.15;7.70;;;1.70;99.90;;;;;;5073757;28;20119;-47
2024/01/20 04:12:37;;;;;;;16.88;8.90;;;1.80;99.90;;;;;;5073848;28;20059;-47
2024/01/20 04:15:03;;;;;;;14.52;8.18;;;1.70;99.90;;;;;;5073704;28;20123;-46
2024/01/20 04:17:29;;;;;;;15.35;8.80;;;1.70;99.90;;;;;;5073630;28;20048;-47
2024/01/20 04:19:54;;;;;;;14.00;7.82;;;1.70;99.90;;;;;;5073137;28;20507;-47
2024/01/20 04:22:20;;;;;;;14.43;8.15;;;1.70;99.90;;;;;;5073476;28;20476;-47
2024/01/20 04:24:46;;;;;;;13.67;8.63;;;1.70;99.90;;;;;;5073640;28;20060;-46
2024/01/20 04:27:11;;;;;;;16.00;8.63;;;1.70;99.90;;;;;;5073758;28;20135;-47
2024/01/20 04:29:37;;;;;;;14.38;8.30;;;1.60;99.90;;;;;;5073627;28;20040;-47
2024/01/20 04:32:03;;;;;;;16.70;8.20;;;1.60;99.90;;;;;;5072858;28;20056;-46
2024/01/20 04:34:29;;;;;;;18.40;9.70;;;1.60;99.90;;;;;;5073618;28;20041;-49
2024/01/20 04:36:54;;;;;;;14.27;8.75;;;1.60;99.90;;;;;;5073503;28;20402;-49
2024/01/20 04:39:20;;;;;;;16.90;8.90;;;1.60;99.90;;;;;;5073271;28;20135;-50
2024/01/20 04:41:46;;;;;;;17.05;9.60;;;1.50;99.90;;;;;;5073432;28;20043;-49
2024/01/20 04:44:11;;;;;;;22.02;10.55;;;1.50;99.90;;;;;;5073865;28;20071;-48
2024/01/20 04:46:37;;;;;;;16.23;9.02;;;1.60;99.90;;;;;;5072502;28;20063;-52
2024/01/20 04:49:03;;;;;;;15.40;8.70;;;1.50;99.90;;;;;;5073393;28;20087;-51
2024/01/20 04:51:29;;;;;;;15.50;9.20;;;1.50;99.90;;;;;;5072491;28;20048;-50
2024/01/20 04:53:54;;;;;;;15.68;9.18;;;1.50;99.90;;;;;;5073377;28;20060;-51
2024/01/20 04:56:22;;;;;;;16.20;8.85;;;1.50;99.90;;;;;;5073420;28;20051;-49
2024/01/20 04:58:55;;;;;;;15.70;8.82;;;1.50;99.90;;;;;;5073362;28;20118;-49
2024/01/20 05:01:21;;;;;;;17.17;9.88;;;1.40;99.90;;;;;;5073451;28;20123;-49
2024/01/20 05:03:46;;;;;;;15.17;9.87;;;1.40;99.90;;;;;;5073198;28;20044;-51
2024/01/20 05:06:13;;;;;;;15.75;9.40;;;1.40;99.90;;;;;;5073262;28;20059;-50
2024/01/20 05:08:38;;;;;;;16.70;9.93;;;1.40;99.90;;;;;;5073114;28;20052;-49
2024/01/20 05:11:04;;;;;;;17.85;10.40;;;1.30;99.90;;;;;;5072149;28;20282;-47
2024/01/20 05:13:30;;;;;;;14.02;8.73;;;1.30;99.90;;;;;;5072208;28;20052;-48
2024/01/20 05:15:56;;;;;;;15.13;9.55;;;1.20;99.90;;;;;;5073105;28;20479;-49
2024/01/20 05:18:21;;;;;;;16.57;9.63;;;1.20;99.90;;;;;;5072170;28;20047;-48
2024/01/20 05:20:47;;;;;;;16.75;10.20;;;1.10;99.90;;;;;;5072034;28;20088;-47
2024/01/20 05:23:13;;;;;;;22.25;11.48;;;1.10;99.90;;;;;;5072971;28;20071;-48
2024/01/20 05:25:38;;;;;;;16.30;10.73;;;1.00;99.90;;;;;;5073117;28;20488;-47
2024/01/20 05:28:04;;;;;;;17.77;10.80;;;1.00;99.90;;;;;;5072124;28;20052;-48
2024/01/20 05:30:31;;;;;;;19.60;11.52;;;1.10;99.90;;;;;;5074997;28;20072;-47
2024/01/20 05:32:57;;;;;;;17.27;10.25;;;1.00;99.90;;;;;;5076621;28;20133;-47
2024/01/20 05:35:23;;;;;;;19.75;10.85;;;1.00;99.90;;;;;;5076628;28;20148;-48
2024/01/20 05:37:49;;;;;;;17.88;10.95;;;1.00;99.90;;;;;;5076913;28;20452;-47
2024/01/20 05:40:14;;;;;;;17.73;10.52;;;1.00;99.90;;;;;;5075464;28;20087;-47
2024/01/20 05:42:40;;;;;;;17.77;11.18;;;1.00;99.90;;;;;;5076638;28;20127;-47
2024/01/20 05:45:09;;;;;;;19.38;11.32;;;0.90;99.90;;;;;;5076453;28;20080;-47
2024/01/20 05:47:36;;;;;;;19.40;11.25;;;0.90;99.90;;;;;;5076511;28;20542;-47
2024/01/20 05:50:02;;;;;;;;;;;0.90;99.90;;;;;;5076763;28;20456;-49
2024/01/20 05:52:28;;;;;;;19.02;10.80;;;0.90;99.90;;;;;;5075454;28;19928;-47
2024/01/20 05:54:54;;;;;;;19.88;11.85;;;0.90;99.90;;;;;;5076394;28;20048;-47
2024/01/20 05:57:19;;;;;;;21.67;11.82;;;0.90;99.90;;;;;;5075178;28;20084;-47
2024/01/20 05:59:45;;;;;;;19.38;11.32;;;0.90;99.90;;;;;;5075391;28;20399;-48
2024/01/20 06:02:11;;;;;;;19.45;11.77;;;0.80;99.90;;;;;;5076187;28;20399;-48
2024/01/20 06:04:36;;;;;;;18.67;10.70;;;0.90;99.90;;;;;;5076191;28;20160;-47
2024/01/20 06:07:02;;;;;;;23.87;12.50;;;0.80;99.90;;;;;;5076482;28;20430;-47
2024/01/20 06:09:28;;;;;;;19.50;11.02;;;0.80;99.90;;;;;;5076142;28;20067;-48
2024/01/20 06:11:53;;;;;;;20.50;12.10;;;0.80;99.90;;;;;;5076129;28;20041;-47
2024/01/20 06:14:19;;;;;;;22.33;11.70;;;0.80;99.90;;;;;;5076110;28;20072;-48
2024/01/20 06:16:45;;;;;;;22.55;12.70;;;0.70;99.90;;;;;;5074803;28;20369;-47
2024/01/20 06:19:10;;;;;;;24.63;12.38;;;0.70;99.90;;;;;;5075801;28;20045;-48
2024/01/20 06:21:36;;;;;;;24.90;11.93;;;0.70;99.90;;;;;;5075724;28;20094;-47
2024/01/20 06:24:02;;;;;;;17.77;10.70;;;0.70;99.90;;;;;;5076149;28;20083;-48
2024/01/20 06:26:28;;;;;;;24.67;12.13;;;0.70;99.90;;;;;;5076021;28;20040;-47
2024/01/20 06:28:54;;;;;;;21.83;11.52;;;0.70;99.90;;;;;;5075747;28;20100;-48
2024/01/20 06:31:24;;;;;;;21.77;11.13;;;0.70;99.90;;;;;;5075950;28;20056;-51
2024/01/20 06:33:50;;;;;;;18.75;11.45;;;0.70;99.90;;;;;;5075492;28;20045;-47
2024/01/20 06:36:16;;;;;;;20.77;11.80;;;0.70;99.90;;;;;;5075345;28;20060;-47
2024/01/20 06:38:41;;;;;;;20.10;12.17;;;0.70;99.90;;;;;;5075587;28;20044;-47
2024/01/20 06:41:07;;;;;;;20.63;11.13;;;0.70;99.90;;;;;;5074830;28;20123;-47
2024/01/20 06:43:33;;;;;;;22.35;12.10;;;0.70;99.90;;;;;;5074043;28;20127;-48
2024/01/20 06:46:00;;;;;;;22.00;11.18;;;0.70;99.90;;;;;;5075441;28;20158;-48
2024/01/20 06:48:26;;;;;;;19.73;10.80;;;0.70;99.90;;;;;;5075234;28;20400;-47
2024/01/20 06:50:52;;;;;;;18.70;10.98;;;0.70;99.90;;;;;;5075392;28;20051;-47
2024/01/20 06:53:18;;;;;;;24.43;11.27;;;0.60;99.90;;;;;;5075383;28;20422;-48
2024/01/20 06:55:43;;;;;;;21.45;11.02;;;0.70;99.90;;;;;;5074070;28;20134;-47
2024/01/20 06:58:09;;;;;;;23.92;12.60;;;0.60;99.90;;;;;;5074915;28;20044;-47
2024/01/20 07:00:35;;;;;;;21.02;11.00;;;0.70;99.90;;;;;;5075181;28;20045;-48
2024/01/20 07:03:03;;;;;;;23.90;11.98;;;0.60;99.90;;;;;;5075024;28;20190;-47
2024/01/20 07:05:28;;;;;;;23.83;11.48;;;0.60;99.90;;;;;;5074980;28;20059;-49
2024/01/20 07:07:54;;;;;;;21.75;11.27;;;0.60;99.90;;;;;;5075009;28;20123;-48
2024/01/20 07:10:20;;;;;;;23.27;10.93;;;0.60;99.90;;;;;;5074905;28;20543;-47
2024/01/20 07:12:45;;;;;;;20.27;11.65;;;0.60;99.90;;;;;;5075081;28;20433;-47
2024/01/20 07:15:11;;;;;;;22.75;11.27;;;0.60;99.90;;;;;;5074797;28;20040;-48
2024/01/20 07:17:37;;;;;;;20.55;11.15;;;0.60;99.90;;;;;;5074686;28;20102;-48
2024/01/20 07:20:03;;;;;;;19.97;10.63;;;0.60;99.90;;;;;;5074828;28;20048;-48
2024/01/20 07:22:31;;;;;;;23.03;11.93;;;0.60;99.90;;;;;;5074431;28;20060;-49
2024/01/20 07:24:57;;;;;;;22.98;12.20;;;0.60;99.90;;;;;;5074648;28;20287;-48
2024/01/20 07:27:22;;;;;;;21.45;10.90;;;0.60;99.90;;;;;;5074534;28;20098;-47
2024/01/20 07:29:48;;;;;;;24.13;10.70;;;0.60;99.90;;;;;;5074423;28;20044;-47
2024/01/20 07:32:14;;;;;;;22.17;11.17;;;0.60;99.90;;;;;;5074343;28;20044;-48
2024/01/20 07:34:40;;;;;;;21.30;11.30;;;0.60;99.90;;;;;;5074279;28;20044;-49
2024/01/20 07:37:06;;;;;;;21.63;10.53;;;0.60;99.90;;;;;;5074440;28;20177;-47
2024/01/20 07:39:31;;;;;;;23.35;11.32;;;0.60;99.90;;;;;;5073376;28;20127;-49
2024/01/20 07:41:57;;;;;;;23.20;11.73;;;0.60;99.90;;;;;;5074146;28;20040;-50
2024/01/20 07:44:23;;;;;;;22.52;11.68;;;0.60;99.90;;;;;;5074294;28;20041;-49
2024/01/20 07:46:49;;;;;;;23.63;12.93;;;0.50;99.90;;;;;;5074243;28;20055;-46
2024/01/20 07:49:15;;;;;;;22.83;11.23;;;0.50;99.90;;;;;;5073040;28;20582;-49
2024/01/20 07:51:40;;;;;;;21.90;11.10;;;0.50;99.90;;;;;;5074776;28;20044;-50
2024/01/20 07:54:06;;;;;;;21.13;10.65;;;0.60;99.90;;;;;;5074070;28;20041;-50
2024/01/20 07:56:31;;;;;;;24.98;12.13;;;0.50;99.90;;;;;;5074086;28;20048;-49
2024/01/20 07:58:57;;;;;;;21.77;11.85;;;0.60;99.90;;;;;;5073911;28;20438;-49
2024/01/20 08:01:23;;;;;;;27.55;11.90;;;0.60;99.90;;;;;;5073819;28;20484;-50
2024/01/20 08:03:49;;;;;;;24.75;11.70;;;0.60;99.90;;;;;;5073741;28;20311;-51
2024/01/20 08:06:14;;;;;;;23.50;12.30;;;0.60;99.90;;;;;;5074224;28;20438;-49
2024/01/20 08:08:40;;;;;;;27.77;11.90;;;0.70;99.90;;;;;;5073946;28;20121;-50
2024/01/20 08:11:06;;;;;;;24.83;11.83;;;0.70;99.90;;;;;;5074123;28;20048;-47
2024/01/20 08:13:32;;;;;;;22.48;11.57;;;0.70;99.90;;;;;;5073799;28;20056;-47
2024/01/20 08:15:57;;;;;;;22.42;12.00;;;0.80;99.90;;;;;;5073776;28;20040;-50
2024/01/20 08:18:23;;;;;;;22.52;11.23;;;0.80;99.90;;;;;;5073520;28;20044;-50
2024/01/20 08:20:48;;;;;;;28.23;11.60;;;0.80;99.90;;;;;;5073985;28;20083;-49
2024/01/20 08:23:14;;;;;;;21.35;11.27;;;0.90;99.90;;;;;;5073332;28;20499;-50
2024/01/20 08:25:40;;;;;;;23.52;11.93;;;0.90;99.90;;;;;;5073620;28;20055;-49
2024/01/20 08:28:05;;;;;;;27.00;12.20;;;1.00;99.90;;;;;;5073715;28;20441;-46
2024/01/20 08:30:31;;;;;;;22.13;11.45;;;1.00;99.90;;;;;;5072631;28;20060;-46
2024/01/20 08:32:57;;;;;;;26.77;13.18;;;1.00;99.90;;;;;;5055913;28;20075;-46
2024/01/20 08:35:23;;;;;;;25.05;12.32;;;1.00;99.90;;;;;;5073622;28;20083;-46
2024/01/20 08:37:49;;;;;;;24.88;12.90;;;1.00;99.90;;;;;;5073606;28;20059;-49
2024/01/20 08:40:14;;;;;;;26.33;11.80;;;1.00;99.90;;;;;;5073458;28;20045;-47
2024/01/20 08:42:40;;;;;;;23.30;11.90;;;1.10;99.90;;;;;;5073395;28;20044;-46
2024/01/20 08:45:06;;;;;;;28.70;13.33;;;1.00;99.90;;;;;;5073390;28;20484;-50
2024/01/20 08:47:32;;;;;;;26.90;13.20;;;1.00;99.90;;;;;;5073559;28;20179;-46
2024/01/20 08:49:57;;;;;;;25.50;12.95;;;1.10;99.90;;;;;;5074066;28;20784;-46
2024/01/20 08:52:23;;;;;;;26.23;12.85;;;1.00;99.90;;;;;;5073437;28;20434;-46
2024/01/20 08:54:49;;;;;;;32.78;16.08;;;1.00;99.90;;;;;;5073526;28;20052;-48
2024/01/20 08:57:14;;;;;;;29.50;14.38;;;1.10;99.90;;;;;;5073230;28;20090;-48
2024/01/20 08:59:40;;;;;;;31.63;14.40;;;1.10;99.90;;;;;;5073246;28;20403;-46
2024/01/20 09:02:06;;;;;;;31.33;14.55;;;1.10;99.90;;;;;;5073245;28;20041;-47
2024/01/20 09:04:32;;;;;;;27.70;14.35;;;1.10;99.90;;;;;;5073713;28;20131;-46
2024/01/20 09:06:57;;;;;;;25.83;13.87;;;1.10;99.90;;;;;;5077289;28;20051;-46
2024/01/20 09:09:23;;;;;;;28.38;13.05;;;1.10;99.90;;;;;;5077088;28;20083;-47
2024/01/20 09:11:49;;;;;;;27.50;14.45;;;1.10;99.90;;;;;;5077230;28;20090;-46
2024/01/20 09:14:15;;;;;;;24.70;13.15;;;1.10;99.90;;;;;;5077137;28;20040;-46
2024/01/20 09:16:40;;;;;;;24.80;12.80;;;1.20;99.90;;;;;;5077070;28;20040;-47
2024/01/20 09:19:06;;;;;;;26.40;12.85;;;1.20;99.90;;;;;;5077465;28;20472;-48
2024/01/20 09:21:32;;;;;;;29.77;15.15;;;1.20;99.90;;;;;;5076975;28;20049;-47
2024/01/20 09:23:58;;;;;;;27.10;14.30;;;1.20;99.90;;;;;;5075537;28;20067;-48
2024/01/20 09:26:24;;;;;;;27.52;14.82;;;1.20;99.90;;;;;;5076958;28;20097;-46
2024/01/20 09:28:49;;;;;;;31.80;13.98;;;1.20;99.90;;;;;;5077004;28;20041;-46
2024/01/20 09:31:15;;;;;;;28.65;14.52;;;1.20;99.90;;;;;;5076510;28;20055;-46
2024/01/20 09:33:43;;;;;;;28.05;14.35;;;1.30;99.90;;;;;;5076857;28;20056;-46
2024/01/20 09:36:09;;;;;;;31.20;14.85;;;1.30;99.90;;;;;;5076764;28;20049;-47
2024/01/20 09:38:35;;;;;;;30.58;15.65;;;1.30;99.90;;;;;;5075767;28;20052;-47
2024/01/20 09:41:01;;;;;;;27.67;14.55;;;1.30;99.90;;;;;;5076524;28;20044;-46
2024/01/20 09:43:28;;;;;;;27.48;13.40;;;1.30;99.90;;;;;;5076325;28;20479;-46
2024/01/20 09:45:56;;;;;;;26.27;12.43;;;1.30;99.90;;;;;;5076391;28;20441;-46
2024/01/20 09:48:23;;;;;;;24.40;13.07;;;1.40;99.90;;;;;;5076545;28;20049;-47
2024/01/20 09:50:49;;;;;;;33.97;15.32;;;1.40;99.90;;;;;;5076497;28;20048;-47
2024/01/20 09:53:16;;;;;;;22.63;12.23;;;1.40;99.90;;;;;;5076371;28;20090;-46
2024/01/20 09:55:44;;;;;;;30.83;13.68;;;1.40;99.90;;;;;;5076176;28;20294;-46
2024/01/20 09:58:15;;;;;;;23.98;12.60;;;1.40;99.90;;;;;;5076353;28;20047;-47
2024/01/20 10:00:42;;;;;;;26.63;12.80;;;1.40;99.90;;;;;;5076216;28;20167;-46
2024/01/20 10:03:09;;;;;;;29.95;14.75;;;1.50;99.90;;;;;;5076339;28;20400;-46
2024/01/20 10:05:35;;;;;;;24.92;13.23;;;1.50;99.90;;;;;;5076143;28;20488;-48
2024/01/20 10:08:02;;;;;;;24.10;13.40;;;1.50;99.90;;;;;;5076228;28;20058;-47
2024/01/20 10:10:28;;;;;;;25.65;12.52;;;1.50;99.90;;;;;;5074728;28;20506;-46
2024/01/20 10:12:54;;;;;;;26.63;13.27;;;1.50;99.90;;;;;;5075936;28;20051;-48
2024/01/20 10:15:25;;;;;;;22.98;12.68;;;1.50;99.90;;;;;;5075894;28;20127;-47
2024/01/20 10:17:52;;;;;;;23.75;12.43;;;1.60;99.90;;;;;;5074342;28;20059;-46
2024/01/20 10:20:21;;;;;;;29.57;13.17;;;1.60;99.90;;;;;;5075913;28;20051;-46
2024/01/20 10:22:48;;;;;;;23.23;12.57;;;1.60;99.90;;;;;;5075447;28;20309;-47
2024/01/20 10:25:19;;;;;;;23.85;11.93;;;1.60;99.90;;;;;;5075648;28;20522;-46
2024/01/20 10:27:46;;;;;;;23.45;11.57;;;1.60;99.90;;;;;;5075621;28;20483;-46
2024/01/20 10:30:12;;;;;;;23.13;11.45;;;1.60;99.90;;;;;;5074517;28;20110;-46
2024/01/20 10:32:41;;;;;;;22.70;12.18;;;1.70;99.90;;;;;;5075776;28;20048;-47
2024/01/20 10:35:08;;;;;;;23.73;11.77;;;1.70;99.90;;;;;;5075557;28;20120;-50
2024/01/20 10:37:37;;;;;;;24.45;12.23;;;1.60;99.90;;;;;;5075640;28;20569;-50
2024/01/20 10:40:05;;;;;;;23.80;12.27;;;1.70;99.90;;;;;;5075307;28;20049;-50
2024/01/20 10:42:32;;;;;;;24.48;10.95;;;1.70;99.90;;;;;;5075211;28;20395;-50
2024/01/20 10:45:09;;;;;;;24.85;11.70;;;1.70;99.90;;;;;;5075483;28;20479;-50
2024/01/20 10:47:37;;;;;;;28.35;12.45;;;1.70;99.90;;;;;;5075601;28;20047;-50
2024/01/20 10:50:07;;;;;;;25.02;11.73;;;1.70;99.90;;;;;;5075315;28;20122;-52
2024/01/20 10:52:37;;;;;;;20.23;10.18;;;1.70;99.90;;;;;;5075094;28;20121;-50
2024/01/20 10:55:05;;;;;;;23.88;10.95;;;1.70;99.90;;;;;;5075023;28;20556;-48
2024/01/20 10:57:31;;;;;;;27.58;11.52;;;1.70;99.90;;;;;;5075187;28;20053;-48
2024/01/20 11:00:04;;;;;;;20.45;10.75;;;1.80;99.90;;;;;;5075293;28;20075;-51
2024/01/20 11:02:30;;;;;;;21.33;10.85;;;1.80;99.90;;;;;;5074987;28;20128;-51
2024/01/20 11:04:56;;;;;;;29.70;11.82;;;1.80;99.90;;;;;;5074978;28;20510;-48
2024/01/20 11:07:23;;;;;;;24.17;11.38;;;1.80;99.90;;;;;;5074810;28;20088;-49
2024/01/20 11:09:59;;;;;;;22.48;11.35;;;1.80;99.90;;;;;;5075008;28;20052;-47
2024/01/20 11:12:29;;;;;;;24.23;11.57;;;1.80;99.90;;;;;;5074824;28;20048;-46
2024/01/20 11:14:58;;;;;;;26.80;12.32;;;1.80;99.90;;;;;;5075042;28;20051;-46
2024/01/20 11:17:24;;;;;;;26.20;11.95;;;1.80;99.90;;;;;;5074674;28;20087;-46
2024/01/20 11:19:50;;;;;;;20.35;11.30;;;1.80;99.90;;;;;;5074508;28;20100;-47
2024/01/20 11:22:29;;;;;;;23.45;11.18;;;1.80;99.90;;;;;;5074683;28;20047;-45
2024/01/20 11:24:56;;;;;;;24.75;11.60;;;1.80;99.90;;;;;;5074816;28;20084;-46
2024/01/20 11:27:22;;;;;;;27.20;12.97;;;1.80;99.90;;;;;;5074347;28;20067;-46
2024/01/20 11:29:47;;;;;;;23.40;11.82;;;1.80;99.90;;;;;;5074566;28;20287;-46
2024/01/20 11:32:13;;;;;;;28.00;11.97;;;1.80;99.90;;;;;;5074295;28;20047;-46
2024/01/20 11:34:40;;;;;;;22.60;11.20;;;1.80;99.90;;;;;;5074207;28;20054;-47
2024/01/20 11:37:08;;;;;;;21.92;10.98;;;1.80;99.90;;;;;;5074626;28;20153;-46
2024/01/20 11:39:34;;;;;;;20.80;10.80;;;1.80;99.90;;;;;;5074191;28;20464;-48
2024/01/20 11:42:04;;;;;;;28.42;12.80;;;1.80;99.90;;;;;;5074364;28;20045;-48
2024/01/20 11:44:31;;;;;;;23.58;12.02;;;1.80;99.90;;;;;;5074208;28;20044;-49
2024/01/20 11:46:58;;;;;;;22.60;11.88;;;1.90;99.90;;;;;;5074143;28;20503;-50
2024/01/20 11:49:25;;;;;;;23.63;10.73;;;1.90;99.90;;;;;;5074240;28;20044;-48
2024/01/20 11:51:51;;;;;;;24.73;12.23;;;1.90;99.90;;;;;;5074399;28;20070;-49
2024/01/20 11:54:17;;;;;;;26.05;12.02;;;1.90;99.90;;;;;;5074170;28;20052;-46
2024/01/20 11:56:43;;;;;;;26.42;12.57;;;1.90;99.90;;;;;;5074040;28;20056;-47
2024/01/20 11:59:08;;;;;;;25.10;11.33;;;1.90;99.90;;;;;;5073939;28;20060;-45
2024/01/20 12:01:35;;;;;;;28.67;13.57;;;1.90;99.90;;;;;;5073842;28;20094;-48
2024/01/20 12:04:01;;;;;;;;;;;1.90;99.90;;;;;;5074397;28;20052;-47
2024/01/20 12:06:27;;;;;;;23.75;11.95;;;1.90;99.90;;;;;;5073981;28;20386;-46
2024/01/20 12:08:55;;;;;;;30.33;13.75;;;1.90;99.90;;;;;;5074082;28;20053;-47
2024/01/20 12:11:22;;;;;;;25.02;12.18;;;1.90;99.90;;;;;;5073907;28;20403;-45
2024/01/20 12:13:48;;;;;;;27.38;12.95;;;1.90;99.90;;;;;;5073069;28;20127;-46
2024/01/20 12:16:15;;;;;;;31.43;13.90;;;1.90;99.90;;;;;;5073691;28;20041;-46
2024/01/20 12:18:40;;;;;;;27.08;13.70;;;1.90;99.90;;;;;;5073825;28;20049;-47
2024/01/20 12:21:06;;;;;;;31.90;14.80;;;1.90;99.90;;;;;;5073709;28;20051;-46
2024/01/20 12:23:32;;;;;;;28.30;14.90;;;2.00;99.90;;;;;;5073777;28;20052;-46
2024/01/20 12:25:59;;;;;;;30.75;14.55;;;2.00;99.90;;;;;;5073693;28;20052;-45
2024/01/20 12:28:25;;;;;;;31.33;15.48;;;2.00;99.90;;;;;;5089772;28;20052;-45
2024/01/20 12:30:51;;;;;;;31.85;14.75;;;2.00;99.90;;;;;;5073662;28;20123;-45
2024/01/20 12:33:17;;;;;;;28.02;15.30;;;2.00;99.90;;;;;;5073705;28;20571;-46
2024/01/20 12:35:43;;;;;;;27.55;15.48;;;2.00;99.90;;;;;;5073610;28;20090;-47
2024/01/20 12:38:09;;;;;;;28.05;14.15;;;2.10;99.90;;;;;;5073669;28;20045;-45